Time;durP1;ratioP1;P1;durP2;ratioP2;P2;SDS_P1;SDS_P2;PMS_P1;PMS_P2;Temp;Humidity;BMP_temperature;BMP_pressure;BME280_temperature;BME280_humidity;BME280_pressure;Samples;Min_cycle;Max_cycle;Signal;HPM_P1;HPM_P2
2022/10/05 00:04:09;;;;;;;5.70;3.60;;;;;;;14.86;46.70;100765.88;10469268;28;20689;-81
2022/10/05 00:09:33;;;;;;;7.22;4.40;;;;;;;14.69;47.31;100756.41;10459633;28;20261;-80
2022/10/05 00:14:58;;;;;;;8.17;3.77;;;;;;;14.08;48.77;100758.28;10476221;28;20218;-80
2022/10/05 00:20:25;;;;;;;5.93;3.73;;;;;;;14.30;48.23;100752.22;10450247;28;20223;-81
2022/10/05 00:25:50;;;;;;;5.15;3.75;;;;;;;13.96;49.65;100759.03;10459720;28;20218;-81
2022/10/05 00:31:22;;;;;;;4.50;3.70;;;;;;;14.32;48.48;100740.53;10442988;28;20241;-80
2022/10/05 00:36:44;;;;;;;4.30;3.80;;;;;;;13.85;49.69;100743.66;10495165;28;20477;-80
2022/10/05 00:42:24;;;;;;;5.17;3.90;;;;;;;14.08;49.81;100736.44;10476322;28;20272;-81
2022/10/05 00:47:56;;;;;;;5.63;4.23;;;;;;;14.18;49.35;100745.69;10474480;28;20195;-80
2022/10/05 00:53:44;;;;;;;5.07;4.27;;;;;;;14.40;48.93;100748.09;10472594;28;20203;-80
2022/10/05 00:59:12;;;;;;;5.38;4.10;;;;;;;14.21;49.10;100748.63;10470828;28;20212;-81
2022/10/05 01:05:04;;;;;;;5.87;3.73;;;;;;;14.26;49.30;100742.75;10477802;28;20296;-80
2022/10/05 01:10:39;;;;;;;8.97;4.70;;;;;;;14.56;48.95;100732.06;10466582;28;20256;-80
2022/10/05 01:16:17;;;;;;;6.80;4.20;;;;;;;14.07;49.74;100740.44;10462584;28;20231;-80
2022/10/05 01:21:47;;;;;;;6.53;4.50;;;;;;;13.26;52.46;100715.50;10455060;28;20223;-81
2022/10/05 01:27:37;;;;;;;5.53;4.83;;;;;;;14.03;50.56;100711.16;10470749;28;20215;-81
2022/10/05 01:33:16;;;;;;;6.07;4.27;;;;;;;14.35;49.81;100711.44;10441417;28;20604;-81
2022/10/05 01:39:03;;;;;;;5.30;4.60;;;;;;;14.52;49.59;100722.59;10429561;28;20199;-82
2022/10/05 01:44:30;;;;;;;7.27;4.87;;;;;;;14.41;49.93;100704.38;10442604;28;20277;-81
2022/10/05 01:50:07;;;;;;;6.50;4.43;;;;;;;14.22;50.48;100704.09;10457758;28;20257;-81
2022/10/05 01:55:43;;;;;;;10.13;5.03;;;;;;;14.10;50.97;100700.06;10470293;28;20198;-82
2022/10/05 02:01:12;;;;;;;8.10;5.10;;;;;;;14.16;50.74;100691.34;10479580;28;20665;-82
2022/10/05 02:06:40;;;;;;;5.73;4.53;;;;;;;13.62;52.03;100697.06;10508041;28;20534;-82
2022/10/05 02:12:16;;;;;;;6.97;5.23;;;;;;;13.82;51.79;100687.66;10476328;28;20217;-80
2022/10/05 02:17:47;;;;;;;6.03;4.80;;;;;;;13.73;51.75;100673.59;10475997;28;20563;-83
2022/10/05 02:23:13;;;;;;;7.50;4.67;;;;;;;13.88;50.93;100666.44;10475442;28;20253;-82
2022/10/05 02:28:44;;;;;;;5.50;4.63;;;;;;;14.13;50.86;100680.69;10492448;28;20227;-81
2022/10/05 02:34:25;;;;;;;6.07;5.10;;;;;;;14.05;50.15;100669.13;10492147;28;20196;-81
2022/10/05 02:40:03;;;;;;;6.57;4.90;;;;;;;14.56;49.13;100666.81;10475717;28;20256;-81
2022/10/05 02:45:30;;;;;;;6.10;4.93;;;;;;;14.05;50.46;100677.63;10491382;28;20234;-80
2022/10/05 02:51:11;;;;;;;8.23;4.93;;;;;;;14.33;49.51;100672.09;10506209;28;20199;-81
2022/10/05 02:56:53;;;;;;;5.50;4.60;;;;;;;14.64;48.33;100673.53;10505428;28;20240;-81
2022/10/05 03:02:18;;;;;;;9.88;4.57;;;;;;;14.69;48.34;100674.13;10504419;28;20704;-80
2022/10/05 03:08:05;;;;;;;7.70;4.27;;;;;;;14.84;48.40;100655.59;10536792;28;21013;-82
2022/10/05 03:13:36;;;;;;;8.35;4.50;;;;;;;14.28;49.50;100648.84;10487285;28;20241;-80
2022/10/05 03:19:24;;;;;;;6.83;4.60;;;;;;;14.35;49.34;100638.53;10476856;28;20229;-80
2022/10/05 03:25:21;;;;;;;10.32;5.00;;;;;;;14.10;50.21;100632.03;10461180;28;20257;-80
2022/10/05 03:31:00;;;;;;;7.07;4.73;;;;;;;13.64;51.58;100626.72;10500366;28;20566;-80
2022/10/05 03:36:31;;;;;;;5.67;4.70;;;;;;;13.63;51.74;100622.22;10488986;28;20607;-80
2022/10/05 03:42:08;;;;;;;6.27;4.57;;;;;;;13.85;51.56;100618.16;10503493;28;20565;-81
2022/10/05 03:47:55;;;;;;;5.73;4.40;;;;;;;13.50;52.45;100617.72;10502431;28;20262;-80
2022/10/05 03:53:19;;;;;;;7.95;4.55;;;;;;;13.18;53.16;100617.28;10488579;28;20231;-80
2022/10/05 03:59:06;;;;;;;6.33;4.83;;;;;;;13.73;51.60;100602.78;10488625;28;20588;-81
2022/10/05 04:04:50;;;;;;;7.67;5.07;;;;;;;13.37;52.67;100603.50;10502344;28;20214;-81
2022/10/05 04:10:20;;;;;;;5.27;4.70;;;;;;;13.13;53.53;100603.38;10474408;28;20256;-81
2022/10/05 04:15:47;;;;;;;9.07;4.00;;;;;;;13.32;52.81;100598.06;10501126;28;20230;-81
2022/10/05 04:21:45;;;;;;;7.57;5.13;;;;;;;13.32;52.66;100594.38;10473501;28;20215;-80
2022/10/05 04:27:16;;;;;;;7.70;5.50;;;;;;;13.20;53.03;100592.34;10469212;28;20227;-80
2022/10/05 04:32:52;;;;;;;7.07;5.00;;;;;;;13.62;51.75;100586.59;10487332;28;20211;-80
2022/10/05 04:38:44;;;;;;;7.13;4.97;;;;;;;13.46;52.41;100594.09;10500397;28;20210;-81
2022/10/05 04:44:19;;;;;;;8.53;5.37;;;;;;;13.04;53.50;100599.78;10500263;28;20231;-81
2022/10/05 04:50:21;;;;;;;8.67;5.27;;;;;;;13.29;52.28;100595.91;10500649;28;20269;-81
2022/10/05 04:56:06;;;;;;;7.17;4.60;;;;;;;13.26;52.27;100599.47;10486642;28;20207;-81
2022/10/05 05:01:59;;;;;;;8.47;6.00;;;;;;;13.64;51.35;100602.06;10486266;28;20280;-80
2022/10/05 05:07:34;;;;;;;7.00;5.23;;;;;;;12.92;53.88;100602.53;10497983;28;20203;-80
2022/10/05 05:13:34;;;;;;;7.00;5.20;;;;;;;13.15;53.26;100598.19;10499905;28;20480;-80
2022/10/05 05:19:18;;;;;;;9.73;5.30;;;;;;;13.03;53.62;100589.66;10499855;28;20500;-81
2022/10/05 05:25:04;;;;;;;8.57;5.70;;;;;;;12.95;53.94;100590.53;10499105;28;20275;-81
2022/10/05 05:30:35;;;;;;;6.40;5.47;;;;;;;12.73;54.62;100599.38;10482846;28;20488;-80
2022/10/05 05:36:13;;;;;;;6.77;4.80;;;;;;;13.12;53.14;100607.38;10484692;28;20256;-81
2022/10/05 05:41:37;;;;;;;6.17;4.70;;;;;;;13.12;53.23;100604.56;10449329;28;20235;-80
2022/10/05 05:47:02;;;;;;;7.27;5.00;;;;;;;13.20;53.34;100606.50;10476873;28;20203;-81
2022/10/05 05:52:37;;;;;;;7.97;5.57;;;;;;;13.09;52.93;100599.56;10461945;28;20248;-82
2022/10/05 05:58:03;;;;;;;8.53;5.23;;;;;;;13.19;53.45;100596.34;10477662;28;20496;-82
2022/10/05 06:03:55;;;;;;;11.13;5.90;;;;;;;13.43;52.61;100601.28;10465014;28;20269;-81
2022/10/05 06:09:28;;;;;;;8.30;5.07;;;;;;;13.47;52.18;100607.06;10471255;28;20221;-80
2022/10/05 06:15:20;;;;;;;8.70;4.77;;;;;;;13.70;51.44;100599.81;10467821;28;20227;-80
2022/10/05 06:20:48;;;;;;;10.97;4.63;;;;;;;14.17;49.94;100594.63;10462499;28;20257;-81
2022/10/05 06:26:32;;;;;;;6.87;4.20;;;;;;;14.05;50.47;100595.44;10461880;28;20298;-81
2022/10/05 06:32:05;;;;;;;8.73;4.63;;;;;;;14.48;49.69;100601.69;10477490;28;20292;-82
2022/10/05 06:37:52;;;;;;;5.87;4.30;;;;;;;14.32;49.80;100601.59;10461281;28;20203;-82
2022/10/05 06:43:28;;;;;;;5.17;4.30;;;;;;;14.63;49.36;100613.13;10476175;28;20268;-80
2022/10/05 06:49:22;;;;;;;6.67;4.57;;;;;;;14.57;48.96;100614.56;10496973;28;20211;-80
2022/10/05 06:55:17;;;;;;;6.53;4.00;;;;;;;15.01;48.17;100609.06;10477775;28;20203;-80
2022/10/05 07:01:03;;;;;;;5.10;4.27;;;;;;;14.32;50.39;100610.91;10486640;28;20199;-80
2022/10/05 07:06:34;;;;;;;5.30;3.80;;;;;;;15.07;48.21;100607.63;10499641;28;20254;-80
2022/10/05 07:12:40;;;;;;;7.03;3.90;;;;;;;15.02;48.20;100605.88;10466857;28;20525;-80
2022/10/05 07:18:19;;;;;;;5.53;3.97;;;;;;;15.40;47.61;100598.84;10474080;28;20211;-80
2022/10/05 07:23:47;;;;;;;8.65;4.03;;;;;;;15.18;48.11;100600.25;10471485;28;20682;-80
2022/10/05 07:29:18;;;;;;;5.00;3.67;;;;;;;14.60;49.69;100608.16;10490927;28;20226;-80
2022/10/05 07:34:49;;;;;;;6.00;3.60;;;;;;;14.31;50.01;100605.59;10452262;28;20199;-80
2022/10/05 07:40:18;;;;;;;6.27;3.60;;;;;;;15.26;48.21;100610.63;10481629;28;20300;-80
2022/10/05 07:45:44;;;;;;;5.90;3.47;;;;;;;15.64;47.33;100609.28;10470378;28;20223;-80
2022/10/05 07:51:19;;;;;;;4.43;3.20;;;;;;;15.54;47.41;100612.66;10482455;28;20227;-80
2022/10/05 07:56:55;;;;;;;5.45;3.42;;;;;;;15.17;48.29;100618.47;10490769;28;20196;-80
2022/10/05 08:02:43;;;;;;;3.33;3.03;;;;;;;15.79;46.79;100622.72;10456201;28;20304;-80
2022/10/05 08:08:07;;;;;;;3.13;2.40;;;;;;;16.21;45.61;100623.84;10470302;28;20245;-79
2022/10/05 08:13:49;;;;;;;3.13;2.45;;;;;;;14.75;48.48;100629.31;10512319;28;20516;-80
2022/10/05 08:19:28;;;;;;;3.70;2.63;;;;;;;15.26;47.88;100629.69;10478423;28;20198;-80
2022/10/05 08:24:58;;;;;;;5.35;2.90;;;;;;;15.41;47.02;100629.72;10485469;28;20258;-79
2022/10/05 08:30:20;;;;;;;3.80;2.57;;;;;;;15.32;47.79;100629.06;10490190;28;20244;-80
2022/10/05 08:35:45;;;;;;;3.00;2.57;;;;;;;16.30;46.19;100620.00;10465970;28;20241;-80
2022/10/05 08:41:28;;;;;;;2.55;2.17;;;;;;;15.10;47.88;100624.78;10481405;28;20234;-80
2022/10/05 08:47:18;;;;;;;3.10;2.07;;;;;;;15.79;46.27;100611.34;10491898;28;20613;-79
2022/10/05 08:53:11;;;;;;;2.75;2.50;;;;;;;15.84;46.54;100623.28;10456273;28;20226;-79
2022/10/05 08:58:56;;;;;;;4.43;2.65;;;;;;;15.54;48.22;100621.19;10482620;28;20488;-80
2022/10/05 09:04:28;;;;;;;2.67;2.40;;;;;;;16.23;45.65;100614.16;10472431;28;20239;-80
2022/10/05 09:10:35;;;;;;;2.63;2.40;;;;;;;15.91;46.67;100614.09;10451055;28;20218;-81
2022/10/05 09:16:25;;;;;;;3.17;2.13;;;;;;;14.95;48.70;100616.19;10426873;28;20305;-80
2022/10/05 09:22:30;;;;;;;2.33;2.00;;;;;;;15.85;46.63;100598.53;10465593;28;20281;-80
2022/10/05 09:27:58;;;;;;;3.23;2.10;;;;;;;16.19;45.95;100592.09;10452897;28;20223;-79
2022/10/05 09:33:53;;;;;;;4.10;3.20;;;;;;;16.11;46.00;100595.97;10486147;28;20267;-80
2022/10/05 09:39:33;;;;;;;2.40;2.00;;;;;;;16.12;46.04;100600.47;10488231;28;20972;-80
2022/10/05 09:45:20;;;;;;;2.45;2.17;;;;;;;16.13;45.78;100587.91;10473180;28;20280;-80
2022/10/05 09:50:51;;;;;;;2.58;2.15;;;;;;;16.14;45.82;100583.88;10486363;28;20482;-79
2022/10/05 09:56:19;;;;;;;3.53;1.83;;;;;;;16.70;45.17;100586.44;10468229;28;20218;-80
2022/10/05 10:01:39;;;;;;;2.40;2.00;;;;;;;15.41;49.26;100589.97;10475222;28;20587;-80
2022/10/05 10:07:16;;;;;;;3.73;2.03;;;;;;;15.71;46.95;100581.91;10476443;28;20296;-80
2022/10/05 10:12:50;;;;;;;2.85;2.10;;;;;;;17.39;44.04;100564.78;10475265;28;20595;-80
2022/10/05 10:18:28;;;;;;;4.32;1.88;;;;;;;16.27;45.58;100563.88;10487104;28;20257;-80
2022/10/05 10:24:00;;;;;;;2.23;2.00;;;;;;;16.66;45.20;100565.63;10466643;28;20308;-80
2022/10/05 10:29:45;;;;;;;1.60;1.50;;;;;;;17.20;44.02;100568.44;10488818;28;20241;-81
2022/10/05 10:35:13;;;;;;;1.77;1.63;;;;;;;16.17;45.78;100573.75;10507695;28;20223;-80
2022/10/05 10:40:46;;;;;;;2.28;1.50;;;;;;;16.38;45.65;100573.50;10503743;28;20287;-81
2022/10/05 10:46:36;;;;;;;1.88;1.52;;;;;;;16.70;44.57;100577.91;10480997;28;20251;-80
2022/10/05 10:52:30;;;;;;;2.10;1.27;;;;;;;16.57;45.54;100570.69;10508224;28;20199;-80
2022/10/05 10:58:33;;;;;;;2.05;1.23;;;;;;;16.54;44.93;100569.41;10494474;28;20207;-80
2022/10/05 11:04:12;;;;;;;2.63;1.07;;;;;;;16.56;44.80;100569.03;10508404;28;20301;-80
2022/10/05 11:09:46;;;;;;;2.55;1.27;;;;;;;16.81;44.52;100555.38;10466269;28;20277;-80
2022/10/05 11:15:27;;;;;;;1.42;1.17;;;;;;;16.39;45.40;100549.53;10505988;28;20261;-80
2022/10/05 11:21:22;;;;;;;2.43;1.57;;;;;;;15.11;47.31;100546.09;10489366;28;20224;-80
2022/10/05 11:26:53;;;;;;;3.08;1.40;;;;;;;15.31;47.08;100549.91;10475606;28;20578;-79
2022/10/05 11:32:43;;;;;;;1.45;1.17;;;;;;;15.96;46.28;100520.03;10482342;28;20230;-80
2022/10/05 11:38:40;;;;;;;1.60;1.10;;;;;;;17.40;42.49;100497.22;10488856;28;20227;-79
2022/10/05 11:44:24;;;;;;;1.00;1.00;;;;;;;17.32;43.73;100501.16;10466841;28;20239;-80
2022/10/05 11:50:23;;;;;;;2.85;1.17;;;;;;;18.30;41.18;100484.97;10482981;28;20550;-80
2022/10/05 11:56:13;;;;;;;1.90;1.52;;;;;;;18.27;40.33;100467.75;10505024;28;20219;-80
2022/10/05 12:01:37;;;;;;;2.15;1.42;;;;;;;19.53;39.96;100449.72;10505397;28;20256;-80
2022/10/05 12:07:29;;;;;;;1.58;1.10;;;;;;;18.05;41.50;100440.13;10507811;28;20695;-79
2022/10/05 12:13:03;;;;;;;2.10;1.30;;;;;;;18.30;41.19;100433.59;10496439;28;20207;-80
2022/10/05 12:18:28;;;;;;;1.30;1.20;;;;;;;17.49;42.96;100424.50;10482983;28;20218;-80
2022/10/05 12:23:55;;;;;;;1.38;1.20;;;;;;;18.48;41.95;100415.91;10456102;28;20361;-80
2022/10/05 12:29:33;;;;;;;7.72;1.40;;;;;;;17.93;42.76;100407.75;10496057;28;20208;-82
2022/10/05 12:35:17;;;;;;;1.20;1.10;;;;;;;18.65;41.22;100392.44;10490714;28;20222;-79
2022/10/05 12:40:44;;;;;;;1.38;1.27;;;;;;;17.53;44.16;100394.06;10476068;28;20244;-79
2022/10/05 12:46:23;;;;;;;2.00;1.23;;;;;;;19.11;40.39;100369.31;10475894;28;20229;-81
2022/10/05 12:51:59;;;;;;;2.72;1.23;;;;;;;18.85;40.54;100351.09;10475771;28;20199;-80
2022/10/05 12:57:34;;;;;;;4.90;1.88;;;;;;;19.47;40.64;100336.16;10504937;28;20244;-80
2022/10/05 13:03:03;;;;;;;1.38;1.25;;;;;;;18.63;41.62;100337.75;10492677;28;20253;-80
2022/10/05 13:08:30;;;;;;;1.50;1.40;;;;;;;19.26;41.16;100326.22;10458408;28;20285;-80
2022/10/05 13:14:30;;;;;;;2.58;1.20;;;;;;;18.02;43.43;100330.47;10476638;28;20231;-80
2022/10/05 13:19:57;;;;;;;1.73;1.00;;;;;;;19.24;40.57;100305.78;10487969;28;20226;-80
2022/10/05 13:25:26;;;;;;;2.75;1.05;;;;;;;18.23;42.26;100302.22;10458862;28;20266;-79
2022/10/05 13:30:53;;;;;;;2.72;1.00;;;;;;;20.52;38.63;100282.81;10501485;28;20256;-79
2022/10/05 13:36:30;;;;;;;2.40;0.90;;;;;;;19.16;39.75;100281.19;10470707;28;20210;-80
2022/10/05 13:41:58;;;;;;;1.75;0.70;;;;;;;19.53;39.20;100281.06;10482712;28;20203;-80
2022/10/05 13:47:30;;;;;;;1.27;0.70;;;;;;;20.23;37.67;100277.00;10487232;28;20260;-80
2022/10/05 13:53:14;;;;;;;3.25;1.08;;;;;;;19.38;38.50;100276.47;10510923;28;20194;-79
2022/10/05 13:58:58;;;;;;;1.50;0.80;;;;;;;19.03;39.89;100280.69;10482005;28;20228;-80
2022/10/05 14:04:23;;;;;;;1.33;1.23;;;;;;;19.37;38.70;100269.94;10494613;28;20261;-79
2022/10/05 14:09:48;;;;;;;0.98;0.90;;;;;;;19.00;39.57;100281.47;10505208;28;20817;-82
2022/10/05 14:15:30;;;;;;;2.03;1.15;;;;;;;19.95;38.06;100274.78;10492985;28;20246;-80
2022/10/05 14:21:04;;;;;;;1.45;1.05;;;;;;;18.92;40.12;100265.47;10479751;28;20260;-80
2022/10/05 14:26:32;;;;;;;1.50;0.70;;;;;;;19.95;38.03;100259.66;10507785;28;20254;-80
2022/10/05 14:32:11;;;;;;;1.70;0.73;;;;;;;19.20;38.86;100269.81;10480144;28;20272;-80
2022/10/05 14:37:57;;;;;;;0.52;0.50;;;;;;;19.27;38.71;100259.22;10493326;28;20191;-80
2022/10/05 14:43:19;;;;;;;2.22;0.93;;;;;;;18.50;40.15;100270.75;10479358;28;20222;-80
2022/10/05 14:48:42;;;;;;;2.88;0.77;;;;;;;19.63;37.79;100266.06;10495901;28;20245;-81
2022/10/05 14:54:26;;;;;;;0.93;0.80;;;;;;;18.77;39.21;100262.88;10477989;28;20272;-81
2022/10/05 14:59:59;;;;;;;0.98;0.77;;;;;;;19.14;39.05;100255.06;10475423;28;21022;-80
2022/10/05 15:05:51;;;;;;;1.42;0.63;;;;;;;18.90;39.40;100267.06;10506257;28;20242;-80
2022/10/05 15:11:35;;;;;;;1.65;0.88;;;;;;;19.25;39.02;100275.16;10461558;28;20211;-81
2022/10/05 15:17:01;;;;;;;3.33;1.20;;;;;;;18.83;39.98;100267.84;10507476;28;20268;-80
2022/10/05 15:22:30;;;;;;;1.45;0.98;;;;;;;19.01;39.80;100276.56;10474509;28;20211;-80
2022/10/05 15:28:16;;;;;;;1.02;0.90;;;;;;;20.39;37.77;100271.72;10489939;28;20254;-81
2022/10/05 15:33:54;;;;;;;1.63;0.68;;;;;;;19.19;39.90;100285.31;10504565;28;20226;-80
2022/10/05 15:39:33;;;;;;;2.03;1.05;;;;;;;19.16;39.87;100297.50;10475115;28;20571;-80
2022/10/05 15:45:11;;;;;;;5.05;1.00;;;;;;;18.11;42.33;100299.63;10475426;28;20355;-80
2022/10/05 15:50:46;;;;;;;1.67;1.10;;;;;;;19.79;38.80;100299.22;10489942;28;20235;-80
2022/10/05 15:56:16;;;;;;;1.27;0.65;;;;;;;19.44;40.04;100306.31;10487686;28;20200;-81
2022/10/05 16:01:45;;;;;;;3.33;1.02;;;;;;;19.26;40.19;100313.94;10492998;28;20198;-80
2022/10/05 16:13:32;;;;;;;4.38;1.08;;;;;;;18.72;40.97;100324.03;10468317;28;20211;-79
2022/10/05 16:19:00;;;;;;;2.92;0.77;;;;;;;18.73;41.34;100325.66;10498186;28;20211;-81
2022/10/05 16:24:38;;;;;;;2.78;1.40;;;;;;;18.40;42.31;100346.47;10487334;28;20250;-79
